Time;durP1;ratioP1;P1;durP2;ratioP2;P2;SDS_P1;SDS_P2;PMS_P1;PMS_P2;Temp;Humidity;BMP_temperature;BMP_pressure;BME280_temperature;BME280_humidity;BME280_pressure;Samples;Min_cycle;Max_cycle;Signal;HPM_P1;HPM_P2
2022/04/17 00:01:43;;;;;;;5.27;4.40;;;4.90;99.90;;;;;;5071595;28;21204;-65
2022/04/17 00:04:10;;;;;;;5.83;4.20;;;4.90;99.90;;;;;;5070997;28;20516;-65
2022/04/17 00:06:37;;;;;;;5.10;4.40;;;4.80;99.90;;;;;;5071191;28;20477;-65
2022/04/17 00:09:05;;;;;;;6.20;4.20;;;4.70;99.90;;;;;;5071147;28;20451;-65
2022/04/17 00:11:34;;;;;;;5.10;4.40;;;4.60;99.90;;;;;;5071011;28;21012;-66
2022/04/17 00:14:01;;;;;;;6.37;5.50;;;4.60;99.90;;;;;;5071044;28;20494;-65
2022/04/17 00:16:28;;;;;;;7.80;5.47;;;4.50;99.90;;;;;;5071301;28;20451;-65
2022/04/17 00:18:55;;;;;;;5.83;4.77;;;4.50;99.90;;;;;;5071061;28;20574;-65
2022/04/17 00:21:22;;;;;;;5.43;3.83;;;4.40;99.90;;;;;;5070808;28;20957;-64
2022/04/17 00:23:49;;;;;;;6.90;4.40;;;4.20;99.90;;;;;;5071024;28;20490;-64
2022/04/17 00:26:18;;;;;;;6.60;4.50;;;4.30;99.90;;;;;;5070641;28;20443;-65
2022/04/17 00:28:46;;;;;;;6.40;4.73;;;4.20;99.90;;;;;;5071052;28;20861;-65
2022/04/17 00:31:13;;;;;;;6.93;5.17;;;4.20;99.90;;;;;;5070860;28;20458;-65
2022/04/17 00:33:39;;;;;;;6.90;4.90;;;4.20;99.90;;;;;;5070672;28;20467;-65
2022/04/17 00:36:06;;;;;;;5.43;4.60;;;4.20;99.90;;;;;;5070499;28;20477;-64
2022/04/17 00:38:33;;;;;;;5.47;4.77;;;4.20;99.90;;;;;;5070447;28;20483;-65
2022/04/17 00:41:00;;;;;;;4.50;4.03;;;4.30;99.90;;;;;;5070801;28;20451;-65
2022/04/17 00:43:30;;;;;;;5.10;4.27;;;4.30;99.90;;;;;;5070504;28;20466;-65
2022/04/17 00:45:57;;;;;;;5.10;4.53;;;4.30;99.90;;;;;;5070151;28;20457;-64
2022/04/17 00:48:24;;;;;;;5.30;4.60;;;4.30;99.90;;;;;;5070367;28;20486;-64
2022/04/17 00:50:52;;;;;;;6.57;5.10;;;4.30;99.90;;;;;;5070401;28;20458;-61
2022/04/17 00:53:21;;;;;;;6.47;5.27;;;4.30;99.90;;;;;;5069890;28;21371;-67
2022/04/17 00:55:49;;;;;;;8.53;4.63;;;4.20;99.90;;;;;;5070160;28;20447;-64
2022/04/17 00:58:16;;;;;;;5.13;4.50;;;4.10;99.90;;;;;;5070451;28;20619;-65
2022/04/17 01:00:45;;;;;;;6.20;5.33;;;4.10;99.90;;;;;;5070220;28;21019;-65
2022/04/17 01:03:13;;;;;;;4.93;4.00;;;4.00;99.90;;;;;;5070089;28;20471;-66
2022/04/17 01:05:42;;;;;;;6.60;4.03;;;4.00;99.90;;;;;;5069784;28;20877;-65
2022/04/17 01:08:10;;;;;;;5.50;4.43;;;4.00;99.90;;;;;;5070296;28;20445;-65
2022/04/17 01:10:38;;;;;;;5.10;3.97;;;4.00;99.90;;;;;;5070323;28;20476;-66
2022/04/17 01:13:08;;;;;;;5.27;4.30;;;4.00;99.90;;;;;;5070402;28;20471;-64
2022/04/17 01:15:36;;;;;;;6.67;4.10;;;3.90;99.90;;;;;;5069912;28;20495;-65
2022/04/17 01:18:04;;;;;;;4.70;4.20;;;3.90;99.90;;;;;;5069836;28;20554;-64
2022/04/17 01:20:31;;;;;;;4.57;4.10;;;3.80;99.90;;;;;;5070186;28;20443;-65
2022/04/17 01:28:26;;;;;;;4.70;4.07;;;3.80;99.90;;;;;;5069829;28;20419;-65
2022/04/17 01:30:53;;;;;;;4.50;3.67;;;3.70;99.90;;;;;;5069999;28;20812;-66
2022/04/17 01:33:20;;;;;;;5.53;4.27;;;3.70;99.90;;;;;;5069877;28;20473;-65
2022/04/17 01:35:47;;;;;;;4.90;4.30;;;3.70;99.90;;;;;;5069567;28;20447;-66
2022/04/17 01:38:15;;;;;;;8.00;4.30;;;3.60;99.90;;;;;;5069672;28;21022;-64
2022/04/17 01:40:43;;;;;;;4.77;4.00;;;3.60;99.90;;;;;;5069573;28;21051;-65
2022/04/17 01:43:09;;;;;;;4.30;3.90;;;3.60;99.90;;;;;;5069515;28;20494;-65
2022/04/17 01:45:37;;;;;;;4.73;3.40;;;3.70;99.90;;;;;;5069551;28;20451;-64
2022/04/17 01:48:04;;;;;;;5.17;3.43;;;3.50;99.90;;;;;;5069750;28;20434;-66
2022/04/17 01:50:32;;;;;;;4.83;3.87;;;3.50;99.90;;;;;;5069626;28;20451;-64
2022/04/17 01:53:00;;;;;;;5.90;3.83;;;3.50;99.90;;;;;;5069537;28;20907;-65
2022/04/17 01:55:29;;;;;;;5.47;4.17;;;3.40;99.90;;;;;;5069213;28;20447;-64
2022/04/17 01:57:57;;;;;;;5.10;4.33;;;3.30;99.90;;;;;;5069329;28;20486;-65
2022/04/17 02:00:24;;;;;;;4.73;4.10;;;3.30;99.90;;;;;;5069559;28;20469;-66
2022/04/17 02:02:50;;;;;;;5.47;4.03;;;3.40;99.90;;;;;;5069578;28;20459;-65
2022/04/17 02:05:17;;;;;;;5.93;4.50;;;3.30;99.90;;;;;;5071759;28;20478;-67
2022/04/17 02:07:44;;;;;;;4.73;4.23;;;3.30;99.90;;;;;;5073718;28;20447;-65
2022/04/17 02:10:16;;;;;;;5.13;4.13;;;3.20;99.90;;;;;;5073488;28;20447;-65
2022/04/17 02:12:46;;;;;;;5.27;4.60;;;3.20;99.90;;;;;;5073411;28;20450;-66
2022/04/17 02:15:14;;;;;;;5.80;5.20;;;3.10;99.90;;;;;;5073165;28;20456;-67
2022/04/17 02:17:41;;;;;;;5.87;5.27;;;3.00;99.90;;;;;;5073394;28;20447;-66
2022/04/17 02:20:10;;;;;;;5.93;4.50;;;2.90;99.90;;;;;;5073275;28;20569;-66
2022/04/17 02:22:37;;;;;;;7.83;5.00;;;2.80;99.90;;;;;;5072989;28;20463;-66
2022/04/17 02:25:04;;;;;;;6.13;4.50;;;2.80;99.90;;;;;;5072722;28;20492;-65
2022/04/17 02:27:31;;;;;;;8.17;5.40;;;2.70;99.90;;;;;;5073303;28;20836;-66
2022/04/17 02:29:59;;;;;;;6.63;5.00;;;2.70;99.90;;;;;;5073279;28;20538;-66
2022/04/17 02:32:26;;;;;;;6.27;5.13;;;2.80;99.90;;;;;;5073152;28;20459;-66
2022/04/17 02:34:53;;;;;;;5.90;5.10;;;2.80;99.90;;;;;;5072570;28;20474;-66
2022/04/17 02:37:20;;;;;;;5.23;4.73;;;2.80;99.90;;;;;;5072900;28;20508;-65
2022/04/17 02:39:47;;;;;;;5.33;4.63;;;2.70;99.90;;;;;;5072744;28;21034;-65
2022/04/17 02:42:14;;;;;;;6.67;5.23;;;2.60;99.90;;;;;;5073084;28;20472;-66
2022/04/17 02:44:41;;;;;;;6.07;5.47;;;2.50;99.90;;;;;;5072455;28;20506;-66
2022/04/17 02:49:54;;;;;;;8.47;5.10;;;2.50;99.90;;;;;;5072928;28;20422;-66
2022/04/17 02:52:21;;;;;;;7.13;4.90;;;2.40;99.90;;;;;;5072858;28;20451;-66
2022/04/17 02:54:48;;;;;;;7.53;5.63;;;2.40;99.90;;;;;;5072421;28;20467;-66
2022/04/17 02:57:15;;;;;;;5.90;5.10;;;2.50;99.90;;;;;;5072624;28;20443;-65
2022/04/17 02:59:41;;;;;;;5.87;5.27;;;2.40;99.90;;;;;;5072483;28;20478;-66
2022/04/17 03:07:38;;;;;;;7.57;5.40;;;2.40;99.90;;;;;;5072621;28;20458;-66
2022/04/17 03:10:06;;;;;;;6.27;5.67;;;2.40;99.90;;;;;;5072599;28;20474;-65
2022/04/17 03:12:33;;;;;;;7.27;5.10;;;2.40;99.90;;;;;;5072467;28;20542;-64
2022/04/17 03:15:00;;;;;;;6.10;4.80;;;2.30;99.90;;;;;;5072099;28;20469;-65
2022/04/17 03:17:28;;;;;;;7.10;5.40;;;2.20;99.90;;;;;;5072646;28;20534;-66
2022/04/17 03:19:55;;;;;;;6.33;5.70;;;2.20;99.90;;;;;;5072619;28;20483;-65
2022/04/17 03:22:23;;;;;;;7.27;5.77;;;2.20;99.90;;;;;;5072393;28;20542;-66
2022/04/17 03:24:50;;;;;;;7.67;6.33;;;2.30;99.90;;;;;;5071924;28;20977;-66
2022/04/17 03:27:17;;;;;;;7.00;6.30;;;2.30;99.90;;;;;;5072135;28;20443;-65
2022/04/17 03:29:44;;;;;;;8.33;7.00;;;2.40;99.90;;;;;;5072691;28;20471;-66
2022/04/17 03:32:11;;;;;;;9.33;6.53;;;2.40;99.90;;;;;;5072007;28;20991;-65
2022/04/17 03:34:39;;;;;;;8.20;7.37;;;2.40;99.90;;;;;;5071779;28;20845;-65
2022/04/17 03:37:06;;;;;;;10.23;6.87;;;2.30;99.90;;;;;;5072117;28;20439;-66
2022/04/17 03:39:33;;;;;;;8.77;6.33;;;2.40;99.90;;;;;;5071795;28;20581;-66
2022/04/17 03:42:00;;;;;;;7.53;5.93;;;2.30;99.90;;;;;;5071804;28;20541;-66
2022/04/17 03:44:27;;;;;;;6.93;5.73;;;2.30;99.90;;;;;;5071728;28;20471;-66
2022/04/17 03:46:54;;;;;;;8.77;6.40;;;2.30;99.90;;;;;;5071930;28;20447;-65
2022/04/17 03:49:21;;;;;;;6.90;6.20;;;2.30;99.90;;;;;;5071761;28;20445;-65
2022/04/17 03:51:49;;;;;;;7.00;6.30;;;2.30;99.90;;;;;;5071976;28;20463;-65
2022/04/17 03:54:16;;;;;;;6.90;6.30;;;2.20;99.90;;;;;;5071388;28;20524;-65
2022/04/17 03:56:46;;;;;;;7.50;5.40;;;2.10;99.90;;;;;;5071734;28;20487;-65
2022/04/17 03:59:13;;;;;;;6.30;5.67;;;2.10;99.90;;;;;;5071707;28;20479;-65
2022/04/17 04:01:39;;;;;;;7.30;6.43;;;2.10;99.90;;;;;;5071594;28;20857;-66
2022/04/17 04:04:07;;;;;;;7.70;6.20;;;2.10;99.90;;;;;;5071172;28;20469;-64
2022/04/17 04:06:34;;;;;;;7.80;6.07;;;2.10;99.90;;;;;;5071423;28;20505;-66
2022/04/17 04:09:02;;;;;;;7.80;7.00;;;2.20;99.90;;;;;;5071182;28;20941;-65
2022/04/17 04:11:29;;;;;;;7.20;6.50;;;2.20;99.90;;;;;;5071222;28;20479;-65
2022/04/17 04:13:56;;;;;;;7.60;6.77;;;2.10;99.90;;;;;;5071173;28;20557;-67
2022/04/17 04:16:23;;;;;;;6.43;5.80;;;1.90;99.90;;;;;;5070915;28;20459;-66
2022/04/17 04:18:50;;;;;;;7.90;6.33;;;1.80;99.90;;;;;;5071010;28;20541;-65
2022/04/17 04:21:17;;;;;;;8.73;6.60;;;1.70;99.90;;;;;;5071147;28;20840;-65
2022/04/17 04:23:44;;;;;;;8.13;6.30;;;1.80;99.90;;;;;;5070831;28;20473;-65
2022/04/17 04:26:12;;;;;;;8.70;6.33;;;1.90;99.90;;;;;;5071025;28;20551;-66
2022/04/17 04:28:38;;;;;;;9.40;7.00;;;1.90;99.90;;;;;;5070407;28;20514;-67
2022/04/17 04:31:06;;;;;;;7.60;6.60;;;1.80;99.90;;;;;;5071109;28;20435;-66
2022/04/17 04:33:33;;;;;;;13.20;6.60;;;1.80;99.90;;;;;;5070880;28;20229;-66
2022/04/17 04:36:00;;;;;;;7.10;6.03;;;1.80;99.90;;;;;;5070864;28;20534;-65
2022/04/17 04:38:27;;;;;;;10.60;6.73;;;1.80;99.90;;;;;;5071252;28;20453;-65
2022/04/17 04:40:54;;;;;;;8.80;7.47;;;1.70;99.90;;;;;;5071254;28;20442;-65
2022/04/17 04:43:22;;;;;;;8.70;6.93;;;1.70;99.90;;;;;;5071095;28;20546;-64
2022/04/17 04:51:19;;;;;;;8.50;6.93;;;1.60;99.90;;;;;;5070755;28;20897;-64
2022/04/17 04:53:46;;;;;;;8.30;7.43;;;1.60;99.90;;;;;;5070443;28;20566;-64
2022/04/17 04:56:13;;;;;;;10.50;7.30;;;1.70;99.90;;;;;;5070270;28;20525;-65
2022/04/17 04:58:42;;;;;;;8.23;5.90;;;1.70;99.90;;;;;;5070316;28;20860;-65
2022/04/17 05:01:09;;;;;;;7.63;6.80;;;1.80;99.90;;;;;;5070382;28;20814;-66
2022/04/17 05:03:36;;;;;;;8.60;7.70;;;1.90;99.90;;;;;;5070129;28;20546;-65
2022/04/17 05:06:03;;;;;;;9.17;8.30;;;2.00;99.90;;;;;;5070028;28;20443;-65
2022/04/17 05:08:30;;;;;;;8.43;6.90;;;2.00;99.90;;;;;;5070264;28;20496;-65
2022/04/17 05:10:57;;;;;;;7.63;6.83;;;2.00;99.90;;;;;;5070017;28;21221;-65
2022/04/17 05:13:24;;;;;;;8.20;6.47;;;2.00;99.90;;;;;;5069952;28;20470;-64
2022/04/17 05:15:53;;;;;;;7.40;6.50;;;2.10;99.90;;;;;;5069526;28;20458;-65
2022/04/17 05:18:19;;;;;;;7.97;6.83;;;2.10;99.90;;;;;;5069863;28;20929;-65
2022/04/17 05:20:46;;;;;;;7.53;6.67;;;2.20;99.90;;;;;;5069933;28;20481;-65
2022/04/17 05:23:18;;;;;;;8.53;6.93;;;2.30;99.90;;;;;;5069855;28;20984;-65
2022/04/17 05:25:47;;;;;;;7.50;6.80;;;2.30;99.90;;;;;;5069732;28;20534;-65
2022/04/17 05:28:14;;;;;;;7.10;6.33;;;2.30;99.90;;;;;;5069944;28;20826;-65
2022/04/17 05:30:41;;;;;;;8.87;5.77;;;2.30;99.90;;;;;;5070328;28;20813;-64
2022/04/17 05:33:10;;;;;;;7.07;6.17;;;2.30;99.90;;;;;;5070177;28;20494;-65
2022/04/17 05:35:37;;;;;;;6.90;6.13;;;2.30;99.90;;;;;;5069529;28;20482;-65
2022/04/17 05:38:05;;;;;;;6.60;5.90;;;2.40;99.90;;;;;;5069846;28;20445;-66
2022/04/17 05:40:36;;;;;;;6.37;5.37;;;2.50;99.90;;;;;;5068919;28;20895;-65
2022/04/17 05:43:03;;;;;;;6.30;5.33;;;2.60;99.90;;;;;;5069509;28;20459;-65
2022/04/17 05:45:30;;;;;;;5.70;5.10;;;2.70;99.90;;;;;;5069565;28;20529;-65
2022/04/17 05:47:58;;;;;;;6.03;5.30;;;2.80;99.90;;;;;;5069741;28;20450;-65
2022/04/17 05:50:28;;;;;;;6.43;5.80;;;2.90;99.90;;;;;;5069456;28;20934;-65
2022/04/17 05:52:55;;;;;;;5.67;5.17;;;2.90;99.90;;;;;;5069545;28;20470;-65
2022/04/17 05:55:22;;;;;;;5.97;5.37;;;3.10;99.90;;;;;;5069111;28;20442;-65
2022/04/17 05:57:49;;;;;;;6.23;5.30;;;3.20;99.90;;;;;;5069708;28;20450;-65
2022/04/17 06:00:16;;;;;;;5.80;5.20;;;3.30;99.90;;;;;;5069490;28;20514;-65
2022/04/17 06:02:44;;;;;;;6.67;5.50;;;3.50;99.90;;;;;;5069433;28;20529;-65
2022/04/17 06:05:11;;;;;;;6.30;5.70;;;3.60;99.90;;;;;;5069033;28;20541;-65
2022/04/17 06:07:40;;;;;;;6.13;5.47;;;3.70;99.90;;;;;;5069305;28;20464;-64
2022/04/17 06:10:09;;;;;;;5.23;4.73;;;3.80;99.90;;;;;;5069248;28;20445;-65
2022/04/17 06:12:37;;;;;;;5.80;5.20;;;3.90;99.90;;;;;;5069615;28;20447;-65
2022/04/17 06:15:05;;;;;;;5.70;5.00;;;4.00;99.90;;;;;;5069177;28;20443;-65
2022/04/17 06:17:37;;;;;;;6.60;4.60;;;4.10;99.90;;;;;;5069283;28;20512;-65
2022/04/17 06:20:06;;;;;;;5.13;4.50;;;4.10;99.90;;;;;;5069124;28;20479;-65
2022/04/17 06:22:34;;;;;;;8.80;5.03;;;4.30;99.90;;;;;;5069059;28;20463;-66
2022/04/17 06:25:02;;;;;;;6.43;4.80;;;4.40;99.90;;;;;;5068942;28;20496;-64
2022/04/17 06:27:37;;;;;;;6.70;6.00;;;4.60;99.90;;;;;;5069221;28;20529;-66
2022/04/17 06:30:10;;;;;;;6.37;4.70;;;4.70;99.90;;;;;;5069219;28;20442;-65
2022/04/17 06:32:36;;;;;;;5.93;4.90;;;4.90;99.90;;;;;;5069035;28;20450;-65
2022/04/17 06:35:03;;;;;;;6.20;5.00;;;5.00;99.90;;;;;;5068699;28;20454;-67
2022/04/17 06:37:30;;;;;;;5.47;4.40;;;5.10;99.90;;;;;;5069108;28;20451;-65
2022/04/17 06:39:58;;;;;;;6.47;4.97;;;5.20;99.90;;;;;;5069183;28;20473;-63
2022/04/17 06:42:26;;;;;;;4.73;4.20;;;5.40;99.90;;;;;;5069172;28;20497;-65
2022/04/17 06:44:53;;;;;;;5.20;4.00;;;5.50;99.90;;;;;;5068674;28;20490;-66
2022/04/17 06:47:19;;;;;;;6.83;4.97;;;5.50;99.90;;;;;;5068797;28;20855;-67
2022/04/17 06:49:46;;;;;;;4.67;3.97;;;5.70;99.90;;;;;;5069196;28;20530;-65
2022/04/17 06:52:14;;;;;;;5.53;4.00;;;5.80;99.90;;;;;;5072655;28;20504;-65
2022/04/17 06:54:40;;;;;;;5.03;4.53;;;5.90;99.90;;;;;;5072265;28;20470;-64
2022/04/17 06:57:07;;;;;;;6.83;4.10;;;6.00;99.90;;;;;;5072595;28;20486;-68
2022/04/17 06:59:35;;;;;;;5.10;4.60;;;6.10;99.90;;;;;;5072541;28;20558;-65
2022/04/17 07:02:02;;;;;;;5.27;4.47;;;6.30;99.90;;;;;;5072386;28;20451;-66
2022/04/17 07:04:29;;;;;;;6.87;5.10;;;6.40;99.90;;;;;;5072185;28;20978;-65
2022/04/17 07:06:56;;;;;;;9.63;6.60;;;6.40;99.90;;;;;;5072601;28;20556;-65
2022/04/17 07:09:23;;;;;;;6.03;5.43;;;6.50;99.90;;;;;;5072414;28;20455;-65
2022/04/17 07:11:51;;;;;;;5.10;4.60;;;6.60;99.90;;;;;;5072268;28;20530;-65
2022/04/17 07:14:18;;;;;;;5.03;4.40;;;6.70;99.90;;;;;;5072004;28;20467;-66
2022/04/17 07:16:47;;;;;;;6.73;5.03;;;6.90;99.90;;;;;;5072098;28;20454;-65
2022/04/17 07:19:16;;;;;;;6.37;4.60;;;7.10;99.90;;;;;;5072337;28;20447;-65
2022/04/17 07:21:43;;;;;;;6.87;5.37;;;7.10;99.90;;;;;;5072136;28;20558;-68
2022/04/17 07:24:10;;;;;;;5.83;4.87;;;7.30;99.90;;;;;;5072052;28;20497;-65
2022/04/17 07:26:37;;;;;;;5.37;4.50;;;7.40;99.90;;;;;;5072060;28;20534;-66
2022/04/17 07:29:04;;;;;;;4.80;4.27;;;7.50;99.90;;;;;;5071898;28;20450;-66
2022/04/17 07:31:31;;;;;;;4.53;3.60;;;7.60;99.90;;;;;;5072205;28;20454;-66
2022/04/17 07:34:00;;;;;;;3.83;3.37;;;7.80;99.90;;;;;;5072158;28;20571;-65
2022/04/17 07:36:27;;;;;;;4.17;3.00;;;8.00;99.90;;;;;;5072050;28;20475;-65
2022/04/17 07:38:53;;;;;;;5.00;3.80;;;8.10;99.90;;;;;;5072231;28;20454;-65
2022/04/17 07:41:20;;;;;;;4.30;3.90;;;8.20;99.90;;;;;;5072059;28;20486;-66
2022/04/17 07:43:47;;;;;;;3.60;3.30;;;8.30;99.90;;;;;;5071862;28;21169;-65
2022/04/17 07:46:14;;;;;;;4.63;4.07;;;8.40;99.90;;;;;;5071939;28;20447;-66
2022/04/17 07:48:41;;;;;;;4.10;3.40;;;8.50;99.90;;;;;;5071948;28;20535;-66
2022/04/17 07:51:09;;;;;;;6.03;3.30;;;8.70;99.90;;;;;;5071778;28;20443;-66
2022/04/17 07:53:36;;;;;;;5.23;3.40;;;8.90;99.90;;;;;;5071502;28;20467;-65
2022/04/17 07:56:03;;;;;;;4.70;3.63;;;9.00;99.90;;;;;;5071163;28;20465;-67
2022/04/17 07:58:34;;;;;;;3.87;2.50;;;9.30;99.70;;;;;;5071680;28;20501;-65
2022/04/17 08:01:10;;;;;;;5.78;3.10;;;9.50;98.80;;;;;;5071225;28;21024;-65
2022/04/17 08:03:47;;;;;;;4.00;3.20;;;9.60;98.10;;;;;;5070544;28;20220;-66
2022/04/17 08:06:17;;;;;;;4.40;2.50;;;9.80;96.80;;;;;;5071038;28;20550;-64
2022/04/17 08:08:45;;;;;;;3.80;2.70;;;9.90;96.80;;;;;;5071087;28;20486;-66
2022/04/17 08:11:12;;;;;;;4.27;2.97;;;10.00;95.20;;;;;;5071423;28;20508;-65
2022/04/17 08:13:42;;;;;;;2.90;2.57;;;10.10;95.20;;;;;;5071199;28;20473;-66
2022/04/17 08:16:09;;;;;;;4.40;2.40;;;10.30;95.00;;;;;;5070880;28;20537;-66
2022/04/17 08:18:37;;;;;;;3.23;2.87;;;10.40;92.60;;;;;;5070991;28;20447;-66
2022/04/17 08:21:04;;;;;;;3.20;2.43;;;10.40;93.90;;;;;;5070810;28;20489;-65
2022/04/17 08:23:35;;;;;;;2.90;2.17;;;10.50;93.40;;;;;;5071070;28;20467;-65
2022/04/17 08:26:03;;;;;;;3.93;2.70;;;10.60;93.20;;;;;;5070805;28;20513;-65
2022/04/17 08:28:30;;;;;;;3.80;2.53;;;10.70;94.30;;;;;;5071011;28;20443;-65
2022/04/17 08:30:57;;;;;;;3.07;2.50;;;10.80;93.50;;;;;;5070855;28;20573;-64
2022/04/17 08:33:26;;;;;;;4.50;3.33;;;10.90;92.20;;;;;;5070659;28;20507;-65
2022/04/17 08:35:53;;;;;;;2.90;1.90;;;11.10;92.50;;;;;;5070175;28;20994;-65
2022/04/17 08:38:21;;;;;;;3.23;2.30;;;11.20;92.40;;;;;;5070597;28;20466;-65
2022/04/17 08:40:50;;;;;;;2.37;1.77;;;11.30;91.20;;;;;;5070553;28;20491;-66
2022/04/17 08:43:21;;;;;;;3.87;1.97;;;11.40;90.80;;;;;;5070267;28;20546;-65
2022/04/17 08:45:50;;;;;;;2.83;1.83;;;11.40;88.90;;;;;;5070067;28;20479;-65
2022/04/17 08:48:18;;;;;;;3.00;2.30;;;11.60;90.00;;;;;;5070323;28;20465;-65
2022/04/17 08:50:47;;;;;;;4.87;2.70;;;11.70;90.10;;;;;;5071143;28;20500;-65
2022/04/17 08:53:16;;;;;;;3.20;2.50;;;11.90;89.70;;;;;;5071236;28;21005;-65
2022/04/17 08:55:44;;;;;;;3.10;1.87;;;12.00;85.80;;;;;;5071001;28;20443;-65
2022/04/17 08:58:13;;;;;;;2.90;2.07;;;12.00;86.00;;;;;;5071271;28;20884;-64
2022/04/17 09:00:40;;;;;;;4.10;2.50;;;12.10;84.10;;;;;;5070499;28;20479;-66
2022/04/17 09:03:09;;;;;;;3.97;2.10;;;12.20;86.00;;;;;;5070549;28;20659;-65
2022/04/17 09:05:38;;;;;;;2.93;1.90;;;12.40;84.90;;;;;;5070153;28;20921;-66
2022/04/17 09:08:16;;;;;;;4.00;1.73;;;12.50;82.40;;;;;;5070304;28;20832;-64
2022/04/17 09:10:54;;;;;;;3.03;1.97;;;12.60;83.80;;;;;;5070289;28;20964;-64
2022/04/17 09:13:32;;;;;;;3.67;2.13;;;12.70;81.30;;;;;;5069979;28;20532;-66
2022/04/17 09:15:59;;;;;;;3.00;2.20;;;12.80;81.50;;;;;;5070062;28;20500;-66
2022/04/17 09:18:31;;;;;;;2.80;2.07;;;13.00;82.50;;;;;;5070516;28;20471;-66
2022/04/17 09:20:58;;;;;;;4.00;2.40;;;13.10;79.80;;;;;;5070191;28;20490;-66
2022/04/17 09:23:36;;;;;;;2.47;1.70;;;13.30;79.50;;;;;;5070207;28;20499;-66
2022/04/17 09:26:04;;;;;;;2.90;2.13;;;13.40;74.90;;;;;;5069784;28;20483;-65
2022/04/17 09:28:36;;;;;;;4.30;2.20;;;13.70;77.90;;;;;;5070115;28;20458;-68
2022/04/17 09:31:10;;;;;;;2.73;1.83;;;14.20;76.60;;;;;;5070186;28;20447;-66
2022/04/17 09:33:40;;;;;;;4.27;2.50;;;14.90;79.10;;;;;;5070165;28;20469;-65
2022/04/17 09:36:08;;;;;;;3.87;1.87;;;15.70;74.20;;;;;;5069657;28;20458;-66
2022/04/17 09:38:35;;;;;;;3.50;1.97;;;16.30;71.70;;;;;;5070292;28;20447;-65
2022/04/17 09:41:06;;;;;;;3.37;2.07;;;16.60;67.60;;;;;;5070259;28;20489;-63
2022/04/17 09:43:35;;;;;;;4.53;2.40;;;17.30;64.10;;;;;;5070018;28;20478;-67
2022/04/17 09:46:03;;;;;;;3.33;1.50;;;17.50;65.10;;;;;;5069859;28;20500;-64
2022/04/17 09:48:32;;;;;;;2.93;1.93;;;18.00;63.70;;;;;;5069941;28;20443;-64
2022/04/17 09:50:59;;;;;;;4.70;3.10;;;18.10;58.80;;;;;;5069802;28;20858;-65
2022/04/17 09:53:35;;;;;;;3.10;1.97;;;17.60;59.70;;;;;;5069641;28;20653;-66
2022/04/17 09:56:06;;;;;;;2.97;1.70;;;17.80;59.40;;;;;;5069353;28;20463;-66
2022/04/17 09:58:37;;;;;;;3.50;1.60;;;18.10;59.40;;;;;;5069699;28;20454;-68
2022/04/17 10:01:06;;;;;;;3.63;1.87;;;18.20;56.60;;;;;;5069547;28;20532;-66
2022/04/17 10:03:38;;;;;;;3.30;2.27;;;18.40;58.40;;;;;;5069410;28;20467;-64
2022/04/17 10:06:06;;;;;;;4.20;1.77;;;18.40;58.70;;;;;;5069156;28;20538;-65
2022/04/17 10:08:33;;;;;;;3.40;1.70;;;18.60;58.80;;;;;;5069497;28;20447;-66
2022/04/17 10:11:01;;;;;;;3.90;2.10;;;18.80;57.20;;;;;;5069420;28;20439;-66
2022/04/17 10:13:30;;;;;;;3.70;2.27;;;18.60;56.20;;;;;;5069392;28;20478;-65
2022/04/17 10:16:00;;;;;;;2.83;1.90;;;19.00;56.20;;;;;;5069289;28;20447;-65
2022/04/17 10:18:32;;;;;;;3.00;1.53;;;18.60;54.00;;;;;;5069710;28;20435;-64
2022/04/17 10:21:00;;;;;;;3.13;1.70;;;18.30;54.40;;;;;;5069319;28;20489;-64
2022/04/17 10:23:29;;;;;;;4.10;3.13;;;17.60;54.70;;;;;;5069577;28;20470;-66
2022/04/17 10:25:58;;;;;;;3.00;1.90;;;17.30;55.40;;;;;;5070899;28;20446;-64
2022/04/17 10:28:29;;;;;;;2.30;1.60;;;17.40;57.20;;;;;;5073525;28;20443;-69
2022/04/17 10:31:13;;;;;;;2.70;1.93;;;18.10;55.80;;;;;;5073490;28;20447;-65
2022/04/17 10:33:57;;;;;;;3.13;2.07;;;18.00;57.00;;;;;;5073393;28;20490;-65
2022/04/17 10:36:34;;;;;;;4.43;2.10;;;18.00;55.80;;;;;;5073765;28;20485;-65
2022/04/17 10:39:15;;;;;;;2.90;1.73;;;16.80;52.90;;;;;;5074368;28;20960;-67
2022/04/17 10:41:43;;;;;;;4.00;1.90;;;16.60;54.60;;;;;;5074411;28;20478;-64
2022/04/17 10:44:11;;;;;;;5.00;2.17;;;16.10;56.50;;;;;;5073832;28;20535;-63
2022/04/17 10:46:50;;;;;;;2.63;1.50;;;16.60;58.20;;;;;;5074352;28;20538;-66
2022/04/17 10:49:19;;;;;;;3.43;2.17;;;17.30;56.20;;;;;;5074755;28;20454;-67
2022/04/17 10:51:53;;;;;;;3.27;2.00;;;18.10;56.90;;;;;;5075002;28;20435;-67
2022/04/17 10:54:21;;;;;;;4.17;2.03;;;18.70;56.50;;;;;;5074308;28;20473;-66
2022/04/17 10:57:02;;;;;;;5.00;2.03;;;18.80;54.10;;;;;;5073339;28;20542;-66
2022/04/17 10:59:31;;;;;;;6.70;3.40;;;19.20;56.80;;;;;;5072859;28;20483;-66
2022/04/17 11:02:04;;;;;;;3.30;2.00;;;19.30;53.50;;;;;;5072639;28;20489;-67
2022/04/17 11:04:38;;;;;;;4.50;2.43;;;19.60;54.90;;;;;;5072599;28;20482;-67
2022/04/17 11:07:27;;;;;;;3.23;2.00;;;19.70;52.40;;;;;;5072807;28;20450;-66
2022/04/17 11:10:19;;;;;;;3.10;1.50;;;20.00;52.50;;;;;;5072687;28;20451;-66
2022/04/17 11:12:48;;;;;;;4.57;1.67;;;19.50;51.80;;;;;;5072728;28;20525;-64
2022/04/17 11:15:24;;;;;;;2.77;1.60;;;18.80;50.50;;;;;;5072449;28;20439;-64
2022/04/17 11:17:52;;;;;;;3.23;1.83;;;18.40;49.70;;;;;;5072591;28;20445;-64
2022/04/17 11:20:21;;;;;;;4.50;2.00;;;18.10;53.20;;;;;;5072394;28;20451;-66
2022/04/17 11:22:48;;;;;;;3.70;2.57;;;18.50;51.70;;;;;;5072160;28;20490;-65
2022/04/17 11:25:15;;;;;;;3.30;1.87;;;19.10;50.30;;;;;;5071996;28;20443;-65
2022/04/17 11:27:47;;;;;;;2.77;1.60;;;19.30;50.20;;;;;;5072248;28;20451;-65
2022/04/17 11:30:35;;;;;;;3.30;2.13;;;19.70;51.80;;;;;;5072357;28;20443;-67
2022/04/17 11:33:07;;;;;;;5.23;1.93;;;19.70;52.70;;;;;;5072083;28;20478;-67
2022/04/17 11:35:35;;;;;;;2.80;2.00;;;20.50;52.50;;;;;;5071988;28;20446;-66
2022/04/17 11:38:05;;;;;;;4.10;2.93;;;21.10;51.70;;;;;;5070936;28;20451;-65
2022/04/17 11:40:34;;;;;;;3.33;2.27;;;21.00;48.40;;;;;;5072217;28;20468;-65
2022/04/17 11:43:12;;;;;;;2.47;1.43;;;21.30;50.30;;;;;;5071883;28;20468;-67
2022/04/17 11:45:40;;;;;;;2.77;1.67;;;21.10;47.70;;;;;;5071976;28;20438;-66
2022/04/17 11:48:11;;;;;;;5.77;2.10;;;21.80;50.90;;;;;;5072239;28;20483;-64
2022/04/17 11:50:38;;;;;;;6.20;4.10;;;22.00;46.70;;;;;;5072348;28;20456;-65
2022/04/17 11:53:10;;;;;;;3.97;3.03;;;22.30;49.30;;;;;;5072258;28;20553;-65
2022/04/17 11:55:38;;;;;;;4.77;3.67;;;22.90;48.60;;;;;;5072312;28;20501;-67
2022/04/17 11:58:10;;;;;;;4.33;3.60;;;23.00;46.90;;;;;;5072649;28;20542;-67
2022/04/17 12:00:37;;;;;;;2.80;2.20;;;22.40;45.60;;;;;;5072055;28;20522;-66
2022/04/17 12:03:06;;;;;;;2.90;2.00;;;22.50;46.00;;;;;;5071601;28;20509;-66
2022/04/17 12:05:37;;;;;;;4.20;2.30;;;22.40;47.10;;;;;;5071391;28;20447;-66
2022/04/17 12:08:09;;;;;;;3.93;2.43;;;22.50;46.00;;;;;;5071574;28;20496;-67
2022/04/17 12:10:38;;;;;;;2.30;1.53;;;22.70;46.10;;;;;;5071650;28;20569;-67
2022/04/17 12:13:19;;;;;;;3.03;1.47;;;22.90;44.10;;;;;;5071313;28;20511;-66
2022/04/17 12:15:49;;;;;;;2.50;1.50;;;23.40;46.70;;;;;;5071195;28;20439;-67
2022/04/17 12:18:19;;;;;;;2.90;1.70;;;24.30;46.40;;;;;;5071322;28;20558;-69
2022/04/17 12:20:59;;;;;;;4.03;2.03;;;25.40;46.90;;;;;;5071024;28;20918;-67
2022/04/17 12:23:29;;;;;;;3.57;2.10;;;25.50;42.70;;;;;;5071304;28;20473;-66
2022/04/17 12:25:58;;;;;;;3.63;1.93;;;25.40;42.90;;;;;;5070910;28;20447;-67
2022/04/17 12:28:25;;;;;;;4.33;2.30;;;24.10;42.40;;;;;;5071027;28;20469;-66
2022/04/17 12:30:52;;;;;;;5.00;2.80;;;23.60;45.90;;;;;;5070989;28;20447;-67
2022/04/17 12:33:23;;;;;;;4.10;2.50;;;24.00;43.50;;;;;;5070817;28;20479;-66
2022/04/17 12:36:08;;;;;;;5.30;3.40;;;24.30;42.30;;;;;;5070813;28;20508;-66
2022/04/17 12:38:36;;;;;;;3.40;2.10;;;24.50;41.80;;;;;;5071059;28;20451;-67
2022/04/17 12:41:18;;;;;;;5.90;3.83;;;25.10;42.60;;;;;;5070862;28;20458;-67
2022/04/17 12:43:48;;;;;;;2.93;2.07;;;26.00;39.90;;;;;;5070598;28;20463;-65
2022/04/17 12:46:23;;;;;;;3.60;2.03;;;25.90;39.60;;;;;;5070900;28;20443;-65
2022/04/17 12:49:06;;;;;;;5.20;3.40;;;26.50;39.40;;;;;;5070299;28;20945;-66
2022/04/17 12:51:35;;;;;;;2.90;1.90;;;26.70;40.60;;;;;;5070803;28;20447;-66
2022/04/17 12:54:02;;;;;;;4.70;3.53;;;26.70;39.90;;;;;;5070326;28;20473;-67
2022/04/17 12:56:29;;;;;;;5.57;4.83;;;26.70;37.80;;;;;;5070752;28;20458;-66
2022/04/17 12:58:58;;;;;;;8.47;6.70;;;27.10;37.70;;;;;;5070580;28;20538;-65
2022/04/17 13:01:26;;;;;;;3.50;2.57;;;27.40;38.20;;;;;;5070329;28;20482;-65
2022/04/17 13:04:07;;;;;;;2.77;1.70;;;27.50;36.90;;;;;;5070508;28;20471;-65
2022/04/17 13:06:35;;;;;;;2.50;1.60;;;27.70;37.20;;;;;;5070441;28;20825;-68
2022/04/17 13:09:07;;;;;;;2.90;1.87;;;27.50;34.70;;;;;;5070329;28;20937;-66
2022/04/17 13:11:35;;;;;;;2.70;1.40;;;27.70;37.10;;;;;;5070585;28;20806;-65
2022/04/17 13:14:05;;;;;;;2.07;1.23;;;27.20;36.10;;;;;;5070259;28;20550;-67
2022/04/17 13:16:32;;;;;;;3.57;1.23;;;27.40;36.50;;;;;;5070213;28;20533;-66
2022/04/17 13:18:59;;;;;;;3.23;2.00;;;27.40;35.10;;;;;;5070100;28;20451;-67
2022/04/17 13:21:26;;;;;;;3.30;1.30;;;27.70;35.50;;;;;;5070161;28;20470;-65